Airfield :
LOGIN :

Register | Disclaimer

   EN    FR    IT 

 










Legend :    VFR   Marginal VFR   IFR   Intensive IFR   Very Intensive IFR
Visi :
Ceiling :
>= 8 km
>= 3000ft
5 to 8 km
1000 to 3000 ft
1500m to 5 km
500 to 1000 ft
800 to 1500m
200 to 500 ft
< 800m
< 200 ft
Symbols :   Thunderstorms  Fog  Heavy snow  Heavy precipitations  Wind > 20 kt
SIGMETs :     Misc.  Thunderstorms  Icing  Turbulence  Mountain Waves  Volcanic Ashes






- Airport Elevation : 289 ft
- IATA code : ZAD


LDZD - Zadar

CURRENT METAR :
  • 150400Z 16004KT 080V180 CAVOK 03/01 Q1014

EXPIRED METARs :
  • 150330Z 12006KT 080V140 CAVOK 03/02 Q1014
  • 150300Z 12005KT CAVOK 02/00 Q1014
  • 150230Z 12006KT CAVOK 02/01 Q1014
  • 150200Z 13006KT CAVOK 03/01 Q1014
  • 150130Z 13006KT CAVOK 03/01 Q1013

TAF TAF LDZD
Valid from the 15 at 00:00 until the 16 at 00:00 UTC


142326Z 1500/1600 11005KT CAVOK TX15/1512Z TNM01/1502Z
BECMG 1508/1510 13010KT



MET'MAP, your aeronautical weather chart ! - Copyright ORBIFLY December 2007 - Disclaimer

ORBIFLY MET'MAP TEAM :

Programming & Development : Alexandra Zaïnal
Concept & original design : Baudouin d'Aumeries
Assistance for programming : Marc-Olivier Méhu
Technical & hardware support : Manuel Goepfert

Contact : metmap@orbifly.com




SOURCES & CREDITS :

   NOAA